createdAt,value
2022-11-29T00:00:58.404Z,72.80
2022-11-29T00:03:26.091Z,72.80
2022-11-29T00:05:53.390Z,72.80
2022-11-29T00:08:20.867Z,72.80
2022-11-29T00:10:47.910Z,72.70
2022-11-29T00:13:14.942Z,72.70
2022-11-29T00:15:41.772Z,72.60
2022-11-29T00:18:09.018Z,72.60
2022-11-29T00:20:38.633Z,72.40
2022-11-29T00:23:05.404Z,72.50
2022-11-29T00:25:32.220Z,72.50
2022-11-29T00:27:59.074Z,72.50
2022-11-29T00:30:26.049Z,72.40
2022-11-29T00:32:52.884Z,72.30
2022-11-29T00:35:19.754Z,72.50
2022-11-29T00:37:46.532Z,72.50
2022-11-29T00:40:13.470Z,72.60
2022-11-29T00:42:40.268Z,72.50
2022-11-29T00:45:07.575Z,72.50
2022-11-29T00:47:34.798Z,72.40
2022-11-29T00:50:01.624Z,72.20
2022-11-29T00:52:28.564Z,72.10
2022-11-29T00:54:55.336Z,72.20
2022-11-29T00:57:22.162Z,72.30
2022-11-29T00:59:49.013Z,72.30
2022-11-29T01:02:15.840Z,72.30
2022-11-29T01:04:43.008Z,72.40
2022-11-29T01:07:09.955Z,72.40
2022-11-29T01:09:36.733Z,72.50
2022-11-29T01:12:03.668Z,72.50
2022-11-29T01:14:30.506Z,72.50
2022-11-29T01:16:57.317Z,72.50
2022-11-29T01:19:24.138Z,72.50
2022-11-29T01:21:50.990Z,72.60
2022-11-29T01:24:17.799Z,72.50
2022-11-29T01:26:44.616Z,72.40
2022-11-29T01:29:13.114Z,72.40
2022-11-29T01:31:40.287Z,72.20
2022-11-29T01:34:07.558Z,72.30
2022-11-29T01:36:35.448Z,72.30
2022-11-29T01:39:04.387Z,72.40
2022-11-29T01:41:33.413Z,72.50
2022-11-29T01:44:26.302Z,72.50
2022-11-29T01:46:54.405Z,72.50
2022-11-29T01:49:27.220Z,72.30
2022-11-29T01:52:02.610Z,72.20
2022-11-29T01:54:31.787Z,72.10
2022-11-29T01:56:59.495Z,71.90
2022-11-29T01:59:29.616Z,71.70
2022-11-29T02:02:12.029Z,71.50
2022-11-29T02:04:41.715Z,71.30
2022-11-29T02:07:09.051Z,71.30
2022-11-29T02:09:35.813Z,71.20
2022-11-29T02:12:20.669Z,71.20
2022-11-29T02:15:15.225Z,72.00
2022-11-29T02:18:14.786Z,71.10
2022-11-29T02:21:11.824Z,71.20
2022-11-29T02:24:36.766Z,71.10
2022-11-29T02:27:29.402Z,70.90
2022-11-29T02:30:08.643Z,70.90
2022-11-29T02:32:50.427Z,70.80
2022-11-29T02:35:51.261Z,70.90
2022-11-29T02:38:56.746Z,70.70
2022-11-29T02:41:35.422Z,70.80
2022-11-29T02:44:29.043Z,70.80
2022-11-29T02:47:40.460Z,71.00
2022-11-29T02:50:10.621Z,71.10
2022-11-29T02:52:50.613Z,71.10
2022-11-29T02:56:08.708Z,71.10
2022-11-29T02:58:54.040Z,71.20
2022-11-29T03:01:29.207Z,71.20
2022-11-29T03:04:19.544Z,71.20
2022-11-29T03:07:25.647Z,71.20
2022-11-29T03:10:06.932Z,71.10
2022-11-29T03:12:41.675Z,71.10
2022-11-29T03:15:23.814Z,71.20
2022-11-29T03:18:15.011Z,71.10
2022-11-29T03:21:05.932Z,71.20
2022-11-29T03:23:42.484Z,71.20
2022-11-29T03:26:14.555Z,71.30
2022-11-29T03:28:56.719Z,71.30
2022-11-29T03:31:37.080Z,71.40
2022-11-29T03:34:25.494Z,71.50
2022-11-29T03:37:18.585Z,71.60
2022-11-29T03:39:56.565Z,71.60
2022-11-29T03:42:50.667Z,71.70
2022-11-29T03:45:34.948Z,71.70
2022-11-29T03:48:36.571Z,71.70
2022-11-29T03:51:21.886Z,71.90
2022-11-29T03:53:58.312Z,72.00
2022-11-29T03:56:37.352Z,72.00
2022-11-29T03:59:25.803Z,72.10
2022-11-29T04:02:23.496Z,72.10
2022-11-29T04:04:59.020Z,72.10
2022-11-29T04:07:49.892Z,72.10
2022-11-29T04:10:38.421Z,72.10
2022-11-29T04:13:14.578Z,72.20
2022-11-29T04:16:03.094Z,72.10
2022-11-29T04:18:51.698Z,72.10
2022-11-29T04:21:21.308Z,72.00
2022-11-29T04:24:09.264Z,71.80
2022-11-29T04:27:03.830Z,71.80
2022-11-29T04:29:50.513Z,71.70
2022-11-29T04:32:32.354Z,71.60
2022-11-29T04:35:28.640Z,71.70
2022-11-29T04:38:23.459Z,71.70
2022-11-29T04:41:04.990Z,71.60
2022-11-29T04:43:46.954Z,71.70
2022-11-29T04:46:51.472Z,71.80
2022-11-29T04:49:51.729Z,71.90
2022-11-29T04:53:03.081Z,71.80
2022-11-29T04:55:35.562Z,71.70
2022-11-29T04:58:12.166Z,71.70
2022-11-29T05:01:06.971Z,71.80
2022-11-29T05:03:49.350Z,71.80
2022-11-29T05:06:44.318Z,71.90
2022-11-29T05:09:22.124Z,71.70
2022-11-29T05:12:00.054Z,71.80
2022-11-29T05:14:48.511Z,71.70
2022-11-29T05:17:39.988Z,71.70
2022-11-29T05:20:12.442Z,71.60
2022-11-29T05:22:45.708Z,71.60
2022-11-29T05:25:30.315Z,71.60
2022-11-29T05:28:41.596Z,71.60
2022-11-29T05:31:40.562Z,71.50
2022-11-29T05:34:49.430Z,71.50
2022-11-29T05:37:45.700Z,71.50
2022-11-29T05:40:21.099Z,71.50
2022-11-29T05:43:16.674Z,71.50
2022-11-29T05:46:26.721Z,71.50
2022-11-29T05:49:01.193Z,71.40
2022-11-29T05:51:50.366Z,71.40
2022-11-29T05:54:19.984Z,71.40
2022-11-29T05:57:11.755Z,71.50
2022-11-29T05:59:39.598Z,71.60
2022-11-29T06:02:32.448Z,71.60
2022-11-29T06:05:11.513Z,71.70
2022-11-29T06:07:48.430Z,71.70
2022-11-29T06:10:20.209Z,72.50
2022-11-29T06:13:11.503Z,71.70
2022-11-29T06:15:47.437Z,71.90
2022-11-29T06:18:37.375Z,71.80
2022-11-29T06:21:40.168Z,71.90
2022-11-29T06:24:16.702Z,72.20
2022-11-29T06:27:03.832Z,72.20
2022-11-29T06:29:40.914Z,73.10
2022-11-29T06:32:21.333Z,72.30
2022-11-29T06:35:17.292Z,72.30
2022-11-29T06:37:51.761Z,72.50
2022-11-29T06:40:18.780Z,72.50
2022-11-29T06:42:45.621Z,72.50
2022-11-29T06:45:14.267Z,72.50
2022-11-29T06:47:49.487Z,72.50
2022-11-29T06:50:28.240Z,72.50
2022-11-29T06:53:22.343Z,72.60
2022-11-29T06:56:02.730Z,72.60
2022-11-29T06:58:57.957Z,72.50
2022-11-29T07:01:50.220Z,72.70
2022-11-29T07:04:46.248Z,72.70
2022-11-29T07:07:22.396Z,72.70
2022-11-29T07:09:58.346Z,72.70
2022-11-29T07:12:25.737Z,72.70
2022-11-29T07:14:53.295Z,72.80
2022-11-29T07:17:35.462Z,72.70
2022-11-29T07:20:13.699Z,72.80
2022-11-29T07:22:58.628Z,72.70
2022-11-29T07:25:35.360Z,72.80
2022-11-29T07:28:28.268Z,72.80
2022-11-29T07:31:10.524Z,72.90
2022-11-29T07:33:52.756Z,72.80
2022-11-29T07:36:31.675Z,72.80
2022-11-29T07:39:16.545Z,72.80
2022-11-29T07:42:00.249Z,72.80
2022-11-29T07:44:42.002Z,72.80
2022-11-29T07:47:09.105Z,72.80
2022-11-29T07:49:38.513Z,72.70
2022-11-29T07:52:05.693Z,72.70
2022-11-29T07:54:32.568Z,72.60
2022-11-29T07:56:59.532Z,72.60
2022-11-29T07:59:26.357Z,72.60
2022-11-29T08:01:53.249Z,72.60
2022-11-29T08:04:20.078Z,72.70
2022-11-29T08:06:46.928Z,72.70
2022-11-29T08:09:13.870Z,72.70
2022-11-29T08:11:40.660Z,72.70
2022-11-29T08:14:07.536Z,72.70
2022-11-29T08:16:34.748Z,72.70
2022-11-29T08:19:01.549Z,72.80
2022-11-29T08:21:28.368Z,72.80
2022-11-29T08:23:55.174Z,72.90
2022-11-29T08:26:24.436Z,72.90
2022-11-29T08:28:55.012Z,72.90
2022-11-29T08:31:21.961Z,72.80
2022-11-29T08:33:48.969Z,72.80
2022-11-29T08:36:19.131Z,72.80
2022-11-29T08:38:46.916Z,72.80
2022-11-29T08:41:15.681Z,72.70
2022-11-29T08:43:43.031Z,72.60
2022-11-29T08:46:15.252Z,72.60
2022-11-29T08:48:43.784Z,72.80
2022-11-29T08:51:10.751Z,72.70
2022-11-29T08:53:43.778Z,72.80
2022-11-29T08:59:06.356Z,72.80
2022-11-29T09:01:33.420Z,72.70
2022-11-29T09:04:00.312Z,72.70
2022-11-29T09:06:38.001Z,72.80
2022-11-29T09:09:07.494Z,72.90
2022-11-29T09:11:36.301Z,72.80
2022-11-29T09:14:06.028Z,72.90
2022-11-29T09:16:36.349Z,72.90
2022-11-29T09:19:04.773Z,73.00
2022-11-29T09:21:33.706Z,73.00
2022-11-29T09:24:02.343Z,73.00
2022-11-29T09:26:32.253Z,73.00
2022-11-29T09:29:03.419Z,73.20
2022-11-29T09:31:33.612Z,73.40
2022-11-29T09:34:00.807Z,73.50
2022-11-29T09:36:29.839Z,73.50
2022-11-29T09:38:57.923Z,73.60
2022-11-29T09:41:48.491Z,73.50
2022-11-29T09:44:40.011Z,73.70
2022-11-29T09:47:21.751Z,73.70
2022-11-29T09:49:52.358Z,73.70
2022-11-29T09:52:37.378Z,73.80
2022-11-29T09:55:31.652Z,73.80
2022-11-29T09:58:01.499Z,73.80
2022-11-29T10:00:30.390Z,73.80
2022-11-29T10:03:02.199Z,73.90
2022-11-29T10:05:58.336Z,73.90
2022-11-29T10:08:34.383Z,74.00
2022-11-29T10:11:22.058Z,73.90
2022-11-29T10:13:53.582Z,74.10
2022-11-29T10:16:42.459Z,74.20
2022-11-29T10:19:21.782Z,74.20
2022-11-29T10:22:05.012Z,74.30
2022-11-29T10:24:33.791Z,74.30
2022-11-29T10:27:00.670Z,74.30
2022-11-29T10:29:27.625Z,74.40
2022-11-29T10:31:56.788Z,74.50
2022-11-29T10:34:25.938Z,74.60
2022-11-29T10:36:59.673Z,74.70
2022-11-29T10:39:29.643Z,74.70
2022-11-29T10:42:02.514Z,74.70
2022-11-29T10:44:33.268Z,74.80
2022-11-29T10:47:10.438Z,74.80
2022-11-29T10:49:40.271Z,74.70
2022-11-29T10:52:22.845Z,74.70
2022-11-29T10:54:52.298Z,74.80
2022-11-29T10:57:21.940Z,74.70
2022-11-29T11:00:09.862Z,74.70
2022-11-29T11:02:37.676Z,74.70
2022-11-29T11:05:18.696Z,74.70
2022-11-29T11:07:47.455Z,74.80
2022-11-29T11:10:29.600Z,74.80
2022-11-29T11:13:18.845Z,74.70
2022-11-29T11:15:45.771Z,74.70
2022-11-29T11:18:21.501Z,74.70
2022-11-29T11:20:58.656Z,74.80
2022-11-29T11:23:37.559Z,74.60
2022-11-29T11:26:13.530Z,74.70
2022-11-29T11:29:00.352Z,74.80
2022-11-29T11:31:38.099Z,74.80
2022-11-29T11:34:23.769Z,75.00
2022-11-29T11:36:50.657Z,74.90
2022-11-29T11:39:23.342Z,74.80
2022-11-29T11:42:10.394Z,75.00
2022-11-29T11:44:52.515Z,75.00
2022-11-29T11:47:28.683Z,75.10
2022-11-29T11:50:04.457Z,75.20
2022-11-29T11:52:39.830Z,75.30
2022-11-29T11:55:32.748Z,75.30
2022-11-29T11:58:12.018Z,75.30
2022-11-29T12:01:04.354Z,75.10
2022-11-29T12:03:52.688Z,74.50
2022-11-29T12:06:53.428Z,74.80
2022-11-29T12:09:28.725Z,74.60
2022-11-29T12:12:26.856Z,74.60
2022-11-29T12:14:59.396Z,74.20
2022-11-29T12:17:26.193Z,74.00
2022-11-29T12:20:04.528Z,74.20
2022-11-29T12:22:41.515Z,74.20
2022-11-29T12:25:19.461Z,74.00
2022-11-29T12:27:46.317Z,74.00
2022-11-29T12:30:15.126Z,73.90
2022-11-29T12:33:01.424Z,73.80
2022-11-29T12:35:43.273Z,73.90
2022-11-29T12:38:33.046Z,73.80
2022-11-29T12:41:42.641Z,73.70
2022-11-29T12:44:37.583Z,73.50
2022-11-29T12:47:37.340Z,73.70
2022-11-29T12:50:25.975Z,73.70
2022-11-29T12:53:13.607Z,73.60
2022-11-29T12:55:56.921Z,73.60
2022-11-29T12:58:45.626Z,73.50
2022-11-29T13:01:37.214Z,73.50
2022-11-29T13:04:20.403Z,73.50
2022-11-29T13:07:02.290Z,73.40
2022-11-29T13:09:47.993Z,73.40
2022-11-29T13:12:20.067Z,73.20
2022-11-29T13:15:11.904Z,73.30
2022-11-29T13:17:44.855Z,73.20
2022-11-29T13:20:40.285Z,73.10
2022-11-29T13:23:52.927Z,73.10
2022-11-29T13:26:22.929Z,73.00
2022-11-29T13:28:50.908Z,72.90
2022-11-29T13:31:21.122Z,72.90
2022-11-29T13:34:03.218Z,72.80
2022-11-29T13:37:07.533Z,72.60
2022-11-29T13:40:15.118Z,72.70
2022-11-29T13:42:53.403Z,72.50
2022-11-29T13:45:51.943Z,72.70
2022-11-29T13:48:28.672Z,72.70
2022-11-29T13:50:57.263Z,72.80
2022-11-29T13:53:30.668Z,72.70
2022-11-29T13:56:02.875Z,72.60
2022-11-29T13:58:30.885Z,72.20
2022-11-29T14:01:08.667Z,72.30
2022-11-29T14:03:38.462Z,72.30
2022-11-29T14:06:11.066Z,72.30
2022-11-29T14:09:16.821Z,72.40
2022-11-29T14:11:44.040Z,72.40
2022-11-29T14:14:30.047Z,72.30
2022-11-29T14:17:06.091Z,72.20
2022-11-29T14:19:34.783Z,72.20
2022-11-29T14:22:07.444Z,72.10
2022-11-29T14:24:37.175Z,72.10
2022-11-29T14:27:12.731Z,72.10
2022-11-29T14:29:53.614Z,72.20
2022-11-29T14:32:56.336Z,72.30
2022-11-29T14:35:37.449Z,72.30
2022-11-29T14:38:23.136Z,72.50
2022-11-29T14:41:16.652Z,72.60
2022-11-29T14:43:43.658Z,72.40
2022-11-29T14:46:29.379Z,72.40
2022-11-29T14:48:56.498Z,72.50
2022-11-29T14:51:30.106Z,72.50
2022-11-29T14:54:13.395Z,72.40
2022-11-29T14:56:45.077Z,72.60
2022-11-29T14:59:46.642Z,72.60
2022-11-29T15:02:35.887Z,72.60
2022-11-29T15:05:14.010Z,72.70
2022-11-29T15:07:50.076Z,72.70
2022-11-29T15:10:21.091Z,72.60
2022-11-29T15:12:49.344Z,72.60
2022-11-29T15:15:22.224Z,72.60
2022-11-29T15:17:59.050Z,72.60
2022-11-29T15:20:56.510Z,72.80
2022-11-29T15:23:23.375Z,72.70
2022-11-29T15:26:01.326Z,72.80
2022-11-29T15:28:29.681Z,72.90
2022-11-29T15:31:07.034Z,73.00
2022-11-29T15:33:37.146Z,73.10
2022-11-29T15:36:10.250Z,72.90
2022-11-29T15:38:46.060Z,73.10
2022-11-29T15:41:31.323Z,72.90
2022-11-29T15:44:00.364Z,72.90
2022-11-29T15:46:29.964Z,73.10
2022-11-29T15:49:24.785Z,73.10
2022-11-29T15:52:06.184Z,73.20
2022-11-29T15:54:46.629Z,73.10
2022-11-29T15:57:34.974Z,73.10
2022-11-29T16:00:06.163Z,72.90
2022-11-29T16:02:40.355Z,73.70
2022-11-29T16:05:15.456Z,73.00
2022-11-29T16:07:44.844Z,73.00
2022-11-29T16:10:14.208Z,72.90
2022-11-29T16:12:58.757Z,73.10
2022-11-29T16:15:35.977Z,73.10
2022-11-29T16:18:13.560Z,73.10
2022-11-29T16:20:40.850Z,73.00
2022-11-29T16:23:13.489Z,73.00
2022-11-29T16:25:52.393Z,73.10
2022-11-29T16:28:19.716Z,73.10
2022-11-29T16:30:46.550Z,73.10
2022-11-29T16:33:21.480Z,73.10
2022-11-29T16:35:48.876Z,73.10
2022-11-29T16:38:21.944Z,73.10
2022-11-29T16:41:07.337Z,73.10
2022-11-29T16:43:53.928Z,73.10
2022-11-29T16:46:20.895Z,73.10
2022-11-29T16:48:49.650Z,73.10
2022-11-29T16:51:24.851Z,73.20
2022-11-29T16:53:53.074Z,73.20
2022-11-29T16:56:26.225Z,73.20
2022-11-29T16:59:20.661Z,73.10
2022-11-29T17:01:43.304Z,73.00
2022-11-29T17:04:10.220Z,73.00
2022-11-29T17:06:37.975Z,73.00
2022-11-29T17:09:05.638Z,73.00
2022-11-29T17:11:32.724Z,73.00
2022-11-29T17:13:59.505Z,72.90
2022-11-29T17:16:26.383Z,72.90
2022-11-29T17:18:53.745Z,72.90
2022-11-29T17:21:27.921Z,72.80
2022-11-29T17:23:54.770Z,72.80
2022-11-29T17:26:23.340Z,72.70
2022-11-29T17:28:51.729Z,72.70
2022-11-29T17:31:21.194Z,72.80
2022-11-29T17:33:48.271Z,72.60
2022-11-29T17:36:17.855Z,72.40
2022-11-29T17:38:46.038Z,72.40
2022-11-29T17:41:18.512Z,72.40
2022-11-29T17:43:45.299Z,72.10
2022-11-29T17:46:24.475Z,72.10
2022-11-29T17:48:52.220Z,72.00
2022-11-29T17:51:50.670Z,72.00
2022-11-29T17:54:09.000Z,71.70
2022-11-29T17:56:35.895Z,71.50
2022-11-29T17:59:04.073Z,71.50
2022-11-29T18:01:35.846Z,71.50
2022-11-29T18:04:05.332Z,72.20
2022-11-29T18:06:40.270Z,71.30
2022-11-29T18:09:09.084Z,71.40
2022-11-29T18:11:46.371Z,71.30
2022-11-29T18:14:28.158Z,71.10
2022-11-29T18:16:55.462Z,71.00
2022-11-29T18:19:23.238Z,71.20
2022-11-29T18:21:51.062Z,71.10
2022-11-29T18:24:18.344Z,71.20
2022-11-29T18:26:46.040Z,71.10
2022-11-29T18:29:12.918Z,71.10
2022-11-29T18:31:42.416Z,71.10
2022-11-29T18:34:10.548Z,71.20
2022-11-29T18:36:42.985Z,71.00
2022-11-29T18:39:13.963Z,70.90
2022-11-29T18:41:43.158Z,70.70
2022-11-29T18:44:12.916Z,70.70
2022-11-29T18:46:43.097Z,70.90
2022-11-29T18:49:11.894Z,70.90
2022-11-29T18:51:39.391Z,70.80
2022-11-29T18:54:06.896Z,70.80
2022-11-29T18:56:35.766Z,70.80
2022-11-29T18:59:09.675Z,70.80
2022-11-29T19:01:40.880Z,70.60
2022-11-29T19:04:18.593Z,70.50
2022-11-29T19:06:46.345Z,70.60
2022-11-29T19:09:16.308Z,70.70
2022-11-29T19:11:43.181Z,70.80
2022-11-29T19:14:12.565Z,70.80
2022-11-29T19:16:42.951Z,70.80
2022-11-29T19:19:09.940Z,70.80
2022-11-29T19:21:37.184Z,70.80
2022-11-29T19:24:07.640Z,70.80
2022-11-29T19:26:34.855Z,70.90
2022-11-29T19:29:02.199Z,70.90
2022-11-29T19:31:29.364Z,71.00
2022-11-29T19:33:56.955Z,71.10
2022-11-29T19:36:29.227Z,71.10
2022-11-29T19:38:56.661Z,71.20
2022-11-29T19:41:32.633Z,71.20
2022-11-29T19:44:02.091Z,71.20
2022-11-29T19:46:35.077Z,71.30
2022-11-29T19:49:03.141Z,71.20
2022-11-29T19:51:30.337Z,71.20
2022-11-29T19:53:59.949Z,71.30
2022-11-29T19:56:27.938Z,71.40
2022-11-29T19:58:55.321Z,71.40
2022-11-29T20:01:25.161Z,71.50
2022-11-29T20:03:52.915Z,71.60
2022-11-29T20:06:19.976Z,71.70
2022-11-29T20:08:48.010Z,71.70
2022-11-29T20:11:17.520Z,71.80
2022-11-29T20:13:46.573Z,71.90
2022-11-29T20:16:18.605Z,72.10
2022-11-29T20:18:51.095Z,72.20
2022-11-29T20:21:27.316Z,72.30
2022-11-29T20:23:58.972Z,72.30
2022-11-29T20:26:26.680Z,72.40
2022-11-29T20:28:53.538Z,72.40
2022-11-29T20:31:22.939Z,72.50
2022-11-29T20:33:52.187Z,72.60
2022-11-29T20:36:49.811Z,72.60
2022-11-29T20:39:38.746Z,72.80
2022-11-29T20:42:31.767Z,72.80
2022-11-29T20:45:07.096Z,72.90
2022-11-29T20:47:47.177Z,72.80
2022-11-29T20:50:23.472Z,72.90
2022-11-29T20:53:12.350Z,72.90
2022-11-29T20:55:44.905Z,73.00
2022-11-29T20:58:14.827Z,73.00
2022-11-29T21:00:41.711Z,73.00
2022-11-29T21:03:08.459Z,73.10
2022-11-29T21:05:37.970Z,73.10
2022-11-29T21:08:04.984Z,73.20
2022-11-29T21:10:31.848Z,73.20
2022-11-29T21:12:59.029Z,73.40
2022-11-29T21:15:26.726Z,73.40
2022-11-29T21:17:53.955Z,73.40
2022-11-29T21:20:26.749Z,73.40
2022-11-29T21:23:20.173Z,73.50
2022-11-29T21:26:11.040Z,73.50
2022-11-29T21:28:49.142Z,73.50
2022-11-29T21:31:17.819Z,73.60
2022-11-29T21:33:45.159Z,73.50
2022-11-29T21:36:12.948Z,73.60
2022-11-29T21:38:40.066Z,73.70
2022-11-29T21:41:07.003Z,73.60
2022-11-29T21:44:04.186Z,73.70
2022-11-29T21:46:20.809Z,73.80
2022-11-29T21:48:47.661Z,73.70
2022-11-29T21:51:14.430Z,73.70
2022-11-29T21:53:41.337Z,73.80
2022-11-29T21:56:10.197Z,73.80
2022-11-29T21:58:38.576Z,73.90
2022-11-29T22:01:27.553Z,73.90
2022-11-29T22:03:54.849Z,74.00
2022-11-29T22:06:24.271Z,73.90
2022-11-29T22:08:51.292Z,73.90
2022-11-29T22:11:30.924Z,73.90
2022-11-29T22:14:14.162Z,74.00
2022-11-29T22:16:52.708Z,74.00
2022-11-29T22:19:22.149Z,74.10
2022-11-29T22:21:51.526Z,74.20
2022-11-29T22:24:20.778Z,74.20
2022-11-29T22:26:48.950Z,74.20
2022-11-29T22:29:16.563Z,74.20
2022-11-29T22:31:45.250Z,74.20
2022-11-29T22:34:12.314Z,74.20
2022-11-29T22:36:39.647Z,74.20
2022-11-29T22:39:07.498Z,74.20
2022-11-29T22:41:35.611Z,74.20
2022-11-29T22:44:02.954Z,74.20
2022-11-29T22:46:30.160Z,74.20
2022-11-29T22:48:58.296Z,74.20
2022-11-29T22:51:27.513Z,74.00
2022-11-29T22:53:55.879Z,74.10
2022-11-29T22:56:23.969Z,74.00
2022-11-29T22:58:50.803Z,73.90
2022-11-29T23:01:20.128Z,73.80
2022-11-29T23:03:51.718Z,73.90
2022-11-29T23:06:24.544Z,73.90
2022-11-29T23:08:53.287Z,74.70
2022-11-29T23:11:25.892Z,74.00
2022-11-29T23:13:53.305Z,74.00
2022-11-29T23:16:23.068Z,73.90
2022-11-29T23:18:50.127Z,74.00
2022-11-29T23:21:20.216Z,73.90
2022-11-29T23:23:51.471Z,74.00
2022-11-29T23:26:26.185Z,74.00
2022-11-29T23:28:54.238Z,74.00
2022-11-29T23:31:22.303Z,74.00
2022-11-29T23:33:49.613Z,74.00
2022-11-29T23:36:17.139Z,73.90
2022-11-29T23:38:44.048Z,74.00
2022-11-29T23:41:11.682Z,74.00
2022-11-29T23:43:40.481Z,74.00
2022-11-29T23:46:13.500Z,74.00
2022-11-29T23:48:40.666Z,74.00
2022-11-29T23:51:07.679Z,73.90
2022-11-29T23:53:34.523Z,74.00
2022-11-29T23:56:04.794Z,74.10
2022-11-29T23:58:32.932Z,74.10
